Time;durP1;ratioP1;P1;durP2;ratioP2;P2;SDS_P1;SDS_P2;PMS_P1;PMS_P2;Temp;Humidity;BMP_temperature;BMP_pressure;BME280_temperature;BME280_humidity;BME280_pressure;Samples;Min_cycle;Max_cycle;Signal;HPM_P1;HPM_P2
2023/10/24 00:01:34;;;;;;;17.35;11.63;;;9.60;99.90;;;;;;5105131;27;20046;-84
2023/10/24 00:04:00;;;;;;;19.08;11.68;;;11.10;99.90;;;;;;5087393;27;20414;-86
2023/10/24 00:06:26;;;;;;;15.27;10.75;;;9.90;99.90;;;;;;5102633;28;20516;-84
2023/10/24 00:08:51;;;;;;;16.92;11.38;;;11.00;99.90;;;;;;5101265;27;20444;-85
2023/10/24 00:11:20;;;;;;;16.33;12.20;;;9.90;99.90;;;;;;5106318;27;20050;-85
2023/10/24 00:13:46;;;;;;;15.77;10.77;;;11.30;99.90;;;;;;5125920;27;20053;-85
2023/10/24 00:16:13;;;;;;;16.52;11.98;;;9.70;99.90;;;;;;5123241;27;20046;-80
2023/10/24 00:18:40;;;;;;;14.80;11.77;;;10.80;99.90;;;;;;5106028;27;20039;-82
2023/10/24 00:21:07;;;;;;;17.08;12.00;;;9.90;99.90;;;;;;5107847;27;20456;-83
2023/10/24 00:23:33;;;;;;;14.48;11.05;;;8.50;99.90;;;;;;5109489;27;20509;-85
2023/10/24 00:25:58;;;;;;;17.17;12.63;;;11.00;99.90;;;;;;5108489;27;20122;-84
2023/10/24 00:28:24;;;;;;;17.15;11.90;;;10.70;99.90;;;;;;5106577;27;20134;-85
2023/10/24 00:30:52;;;;;;;19.48;11.85;;;11.00;99.90;;;;;;5122284;27;20304;-79
2023/10/24 00:33:18;;;;;;;17.77;12.32;;;11.10;99.90;;;;;;5106744;27;20051;-80
2023/10/24 00:35:44;;;;;;;19.60;13.23;;;9.90;99.90;;;;;;5105940;27;20537;-83
2023/10/24 00:38:09;;;;;;;15.95;11.90;;;11.40;99.90;;;;;;5107965;27;20069;-81
2023/10/24 00:40:35;;;;;;;14.77;11.40;;;9.70;99.90;;;;;;5131199;27;20055;-77
2023/10/24 00:43:04;;;;;;;17.38;12.77;;;10.60;99.90;;;;;;5110913;27;20054;-81
2023/10/24 00:45:31;;;;;;;17.10;13.65;;;10.70;99.90;;;;;;5120363;27;20055;-83
2023/10/24 00:47:57;;;;;;;14.07;10.95;;;9.80;99.90;;;;;;5102913;28;20058;-84
2023/10/24 00:50:23;;;;;;;17.00;11.82;;;9.80;99.90;;;;;;5104984;27;20506;-80
2023/10/24 00:52:49;;;;;;;16.90;12.60;;;9.80;99.90;;;;;;5123039;27;20565;-84
2023/10/24 00:55:16;;;;;;;18.27;12.68;;;9.70;99.90;;;;;;5103164;28;20043;-83
2023/10/24 00:57:42;;;;;;;16.33;13.65;;;9.80;99.90;;;;;;5101502;28;20067;-84
2023/10/24 01:00:09;;;;;;;24.02;12.77;;;9.70;99.90;;;;;;5104076;27;20039;-86
2023/10/24 01:02:35;;;;;;;25.80;14.15;;;9.70;99.90;;;;;;5105496;27;20460;-84
2023/10/24 01:05:02;;;;;;;16.33;13.27;;;9.70;99.90;;;;;;5103405;27;20035;-84
2023/10/24 01:07:28;;;;;;;15.73;12.85;;;9.70;99.90;;;;;;5103185;28;20512;-84
2023/10/24 01:09:54;;;;;;;18.88;13.13;;;10.50;99.90;;;;;;5101458;28;20123;-85
2023/10/24 01:12:19;;;;;;;17.77;12.25;;;9.70;99.90;;;;;;5105104;27;20039;-80
2023/10/24 01:14:45;;;;;;;18.23;12.23;;;9.80;99.90;;;;;;5105917;27;20064;-83
2023/10/24 01:17:15;;;;;;;18.88;13.57;;;9.90;99.90;;;;;;5102902;27;20036;-85
2023/10/24 01:19:40;;;;;;;24.25;14.32;;;10.70;99.90;;;;;;5100353;28;20055;-85
2023/10/24 01:22:06;;;;;;;20.13;13.23;;;11.30;99.90;;;;;;5103782;27;20109;-86
2023/10/24 01:24:32;;;;;;;20.15;14.10;;;9.70;99.90;;;;;;5104550;27;20037;-83
2023/10/24 01:26:59;;;;;;;22.30;13.52;;;9.70;99.90;;;;;;5103594;27;20078;-84
2023/10/24 01:29:25;;;;;;;21.58;13.70;;;9.70;99.90;;;;;;5102377;28;20044;-85
2023/10/24 01:31:51;;;;;;;20.45;15.25;;;11.10;99.90;;;;;;5103054;28;20605;-84
2023/10/24 01:34:17;;;;;;;17.25;13.60;;;9.70;99.90;;;;;;5110455;28;20043;-83
2023/10/24 01:36:42;;;;;;;26.05;15.15;;;9.60;99.90;;;;;;5119105;27;20035;-88
2023/10/24 01:39:08;;;;;;;27.23;14.85;;;10.30;99.90;;;;;;5103914;27;20039;-81
2023/10/24 01:41:34;;;;;;;17.25;13.35;;;9.70;99.90;;;;;;5104907;27;20192;-85
2023/10/24 01:44:00;;;;;;;23.52;14.50;;;9.70;99.90;;;;;;5121173;27;20091;-86
2023/10/24 01:46:25;;;;;;;22.23;13.25;;;9.70;99.90;;;;;;5101012;28;20086;-81
2023/10/24 01:48:51;;;;;;;20.17;13.82;;;11.70;99.90;;;;;;5100396;28;20130;-88
2023/10/24 01:51:17;;;;;;;19.23;14.13;;;9.70;99.90;;;;;;5105009;27;20062;-87
2023/10/24 01:53:42;;;;;;;23.33;15.07;;;9.70;99.90;;;;;;5104317;27;20068;-85
2023/10/24 01:56:10;;;;;;;22.60;14.60;;;10.80;99.90;;;;;;5102362;27;20047;-90
2023/10/24 01:58:36;;;;;;;23.40;14.30;;;9.70;99.90;;;;;;5101278;28;20095;-89
2023/10/24 02:01:02;;;;;;;18.10;13.23;;;9.70;99.90;;;;;;5100813;27;20452;-88
2023/10/24 02:03:28;;;;;;;26.92;15.98;;;9.70;99.90;;;;;;5105081;27;20047;-87
2023/10/24 02:05:54;;;;;;;15.77;12.70;;;9.70;99.90;;;;;;5104135;27;20047;-82
2023/10/24 02:08:19;;;;;;;26.40;16.48;;;9.70;99.90;;;;;;5100788;28;20048;-85
2023/10/24 02:10:45;;;;;;;21.20;14.68;;;9.70;99.90;;;;;;5100450;28;20039;-76
2023/10/24 02:13:11;;;;;;;24.83;15.02;;;9.70;99.90;;;;;;5114098;27;20073;-79
2023/10/24 02:15:39;;;;;;;19.17;13.50;;;11.40;99.90;;;;;;5104942;27;20505;-80
2023/10/24 02:18:05;;;;;;;22.35;14.18;;;9.70;99.90;;;;;;5102397;27;20077;-85
2023/10/24 02:20:30;;;;;;;17.30;13.48;;;11.30;99.90;;;;;;5097256;27;20050;-83
2023/10/24 02:22:56;;;;;;;23.85;13.55;;;10.10;99.90;;;;;;5102995;27;20124;-87
2023/10/24 02:25:22;;;;;;;16.95;13.07;;;9.70;99.90;;;;;;5101231;28;20079;-85
2023/10/24 02:27:47;;;;;;;23.80;12.73;;;11.80;99.90;;;;;;5100078;28;20031;-84
2023/10/24 02:30:13;;;;;;;20.17;13.35;;;9.70;99.90;;;;;;5101891;27;20044;-86
2023/10/24 02:32:39;;;;;;;24.30;14.05;;;9.70;99.90;;;;;;5104098;27;20043;-88
2023/10/24 02:35:05;;;;;;;13.05;10.85;;;9.60;99.90;;;;;;5119173;27;20100;-84
2023/10/24 02:37:30;;;;;;;19.92;13.82;;;9.70;99.90;;;;;;5099733;28;20127;-78
2023/10/24 02:39:56;;;;;;;26.67;15.15;;;11.70;99.90;;;;;;5100115;28;20147;-86
2023/10/24 02:42:22;;;;;;;18.67;12.05;;;9.70;99.90;;;;;;5104291;27;20050;-87
2023/10/24 02:44:49;;;;;;;22.23;13.95;;;9.70;99.90;;;;;;5119677;27;20047;-83
2023/10/24 02:47:15;;;;;;;15.77;11.90;;;9.70;99.90;;;;;;5100776;27;20046;-83
2023/10/24 02:49:40;;;;;;;12.07;10.35;;;11.00;99.90;;;;;;5098845;28;20066;-84
2023/10/24 02:52:06;;;;;;;14.70;12.00;;;10.80;99.90;;;;;;5101589;27;20138;-82
2023/10/24 02:54:32;;;;;;;16.27;11.82;;;9.80;99.90;;;;;;5104012;27;20100;-85
2023/10/24 02:56:57;;;;;;;16.95;12.10;;;11.70;99.90;;;;;;5102679;27;20133;-83
2023/10/24 02:59:23;;;;;;;18.98;12.45;;;9.90;99.90;;;;;;5099761;28;20035;-86
2023/10/24 03:01:49;;;;;;;13.35;9.68;;;10.40;99.90;;;;;;5116227;27;20070;-85
2023/10/24 03:04:14;;;;;;;13.88;9.65;;;11.10;99.90;;;;;;5102175;27;20084;-86
2023/10/24 03:06:40;;;;;;;15.02;11.02;;;9.80;99.90;;;;;;5103059;27;20088;-85
2023/10/24 03:09:06;;;;;;;12.52;9.93;;;9.80;99.90;;;;;;5101687;27;20078;-82
2023/10/24 03:11:31;;;;;;;14.48;10.75;;;11.50;99.90;;;;;;5098604;28;20570;-78
2023/10/24 03:13:57;;;;;;;17.23;11.85;;;9.90;99.90;;;;;;5099690;28;20119;-84
2023/10/24 03:16:23;;;;;;;12.07;9.55;;;9.90;99.90;;;;;;5102997;27;20047;-85
2023/10/24 03:18:48;;;;;;;14.57;11.15;;;9.90;99.90;;;;;;5101708;27;20037;-86
2023/10/24 03:21:15;;;;;;;14.27;10.30;;;11.50;99.90;;;;;;5100614;27;20096;-86
2023/10/24 03:23:41;;;;;;;17.10;11.25;;;11.20;99.90;;;;;;5099394;28;20039;-87
2023/10/24 03:26:07;;;;;;;20.35;12.35;;;9.90;99.90;;;;;;5100005;27;20146;-85
2023/10/24 03:28:33;;;;;;;14.55;11.07;;;10.40;99.90;;;;;;5102630;27;20035;-83
2023/10/24 03:31:06;;;;;;;16.58;10.25;;;9.90;99.90;;;;;;5118766;27;20085;-84
2023/10/24 03:33:33;;;;;;;25.07;12.93;;;11.70;99.90;;;;;;5098914;28;20035;-84
2023/10/24 03:35:59;;;;;;;18.33;12.15;;;10.00;99.90;;;;;;5099263;27;20036;-82
2023/10/24 03:38:27;;;;;;;13.40;10.23;;;10.90;99.90;;;;;;5103083;27;20043;-86
2023/10/24 03:40:53;;;;;;;16.10;10.93;;;9.90;99.90;;;;;;5101208;27;20339;-78
2023/10/24 03:43:18;;;;;;;15.60;9.90;;;11.80;99.90;;;;;;5099795;28;20304;-83
2023/10/24 03:45:44;;;;;;;13.93;10.07;;;11.90;99.90;;;;;;5125999;27;20047;-84
2023/10/24 03:48:11;;;;;;;11.27;8.43;;;10.70;99.90;;;;;;5120683;27;20046;-81
2023/10/24 03:50:37;;;;;;;21.75;11.52;;;11.70;99.90;;;;;;5102603;27;20377;-86
2023/10/24 03:53:06;;;;;;;25.45;14.32;;;11.70;99.90;;;;;;5100911;28;20098;-84
2023/10/24 03:55:33;;;;;;;21.35;12.65;;;11.00;99.90;;;;;;5098956;28;20122;-76
2023/10/24 03:57:58;;;;;;;16.98;11.07;;;10.70;99.90;;;;;;5099091;28;20650;-80
2023/10/24 04:00:25;;;;;;;25.33;14.48;;;12.00;99.90;;;;;;5101085;28;20046;-81
2023/10/24 04:02:54;;;;;;;24.60;14.10;;;10.40;99.90;;;;;;5102103;28;20126;-80
2023/10/24 04:05:20;;;;;;;15.25;10.32;;;10.10;99.90;;;;;;5099445;28;20388;-82
2023/10/24 04:07:47;;;;;;;20.45;13.02;;;10.20;99.90;;;;;;5097816;28;20036;-80
2023/10/24 04:10:14;;;;;;;25.60;13.93;;;10.20;99.90;;;;;;5100906;28;20385;-83
2023/10/24 04:12:40;;;;;;;17.73;12.00;;;10.20;99.90;;;;;;5102515;28;20041;-84
2023/10/24 04:15:07;;;;;;;20.85;13.15;;;11.20;99.90;;;;;;5100664;28;20043;-81
2023/10/24 04:17:33;;;;;;;13.88;11.20;;;10.30;99.90;;;;;;5098426;28;20040;-82
2023/10/24 04:19:58;;;;;;;18.50;12.48;;;11.30;99.90;;;;;;5098212;28;20039;-82
2023/10/24 04:22:24;;;;;;;17.60;12.27;;;10.80;99.90;;;;;;5098108;28;20059;-83
2023/10/24 04:24:50;;;;;;;22.75;14.57;;;10.30;99.90;;;;;;5098647;28;20598;-83
2023/10/24 04:27:16;;;;;;;19.27;12.00;;;10.20;99.90;;;;;;5101436;28;20036;-85
2023/10/24 04:29:42;;;;;;;13.52;11.02;;;10.30;99.90;;;;;;5100988;28;20435;-84
2023/10/24 04:32:08;;;;;;;13.80;11.18;;;12.40;99.90;;;;;;5117614;28;20106;-85
2023/10/24 04:34:34;;;;;;;14.93;11.65;;;11.70;99.90;;;;;;5098150;28;20499;-85
2023/10/24 04:37:01;;;;;;;18.80;12.93;;;12.50;99.90;;;;;;5098366;28;20066;-82
2023/10/24 04:39:27;;;;;;;19.25;13.25;;;11.60;99.90;;;;;;5104687;27;20482;-81
2023/10/24 04:41:53;;;;;;;19.08;13.98;;;10.30;99.90;;;;;;5104994;27;20078;-82
2023/10/24 04:44:19;;;;;;;15.07;10.98;;;10.40;99.90;;;;;;5102337;27;20552;-85
2023/10/24 04:46:45;;;;;;;14.77;11.93;;;12.20;99.90;;;;;;5101552;28;20054;-86
2023/10/24 04:49:11;;;;;;;13.80;11.52;;;11.50;99.90;;;;;;5119690;27;20513;-81
2023/10/24 04:51:37;;;;;;;15.27;10.98;;;11.50;99.90;;;;;;5104919;27;20070;-85
2023/10/24 04:54:02;;;;;;;14.40;12.38;;;12.30;99.90;;;;;;5104845;27;20065;-80
2023/10/24 04:56:28;;;;;;;27.58;15.15;;;10.50;99.90;;;;;;5100273;28;20047;-84
2023/10/24 04:58:55;;;;;;;13.38;10.55;;;10.50;99.90;;;;;;5101469;28;20103;-85
2023/10/24 05:01:20;;;;;;;16.63;12.32;;;10.50;99.90;;;;;;5125299;27;20047;-85
2023/10/24 05:03:46;;;;;;;13.65;11.50;;;10.50;99.90;;;;;;5124957;27;20126;-80
2023/10/24 05:06:12;;;;;;;14.40;12.02;;;12.10;99.90;;;;;;5107311;27;20050;-84
2023/10/24 05:08:38;;;;;;;15.60;13.20;;;10.80;99.90;;;;;;5105165;27;20027;-84
2023/10/24 05:11:04;;;;;;;15.55;12.88;;;10.60;99.90;;;;;;5105264;27;20039;-82
2023/10/24 05:13:30;;;;;;;16.27;12.70;;;11.60;99.90;;;;;;5126124;27;20087;-83
2023/10/24 05:15:55;;;;;;;15.32;12.77;;;10.30;99.90;;;;;;5108463;27;20123;-80
2023/10/24 05:18:21;;;;;;;16.10;12.85;;;12.00;99.90;;;;;;5112609;27;20203;-80
2023/10/24 05:20:47;;;;;;;40.17;29.52;;;12.10;99.90;;;;;;5109448;27;20039;-84
2023/10/24 05:23:13;;;;;;;17.50;13.32;;;12.50;99.90;;;;;;5124146;27;20035;-81
2023/10/24 05:25:40;;;;;;;15.93;13.60;;;11.00;99.90;;;;;;5107785;27;20049;-84
2023/10/24 05:28:06;;;;;;;17.08;13.75;;;12.50;99.90;;;;;;5106829;27;20057;-83
2023/10/24 05:30:31;;;;;;;17.25;13.80;;;12.70;99.90;;;;;;5103908;27;20043;-78
2023/10/24 05:32:58;;;;;;;16.02;13.88;;;12.70;99.90;;;;;;5103908;27;20124;-81
2023/10/24 05:35:24;;;;;;;17.50;13.85;;;12.20;99.90;;;;;;5108204;27;20070;-77
2023/10/24 05:37:50;;;;;;;16.27;13.75;;;12.10;99.90;;;;;;5107764;27;20079;-78
2023/10/24 05:40:15;;;;;;;15.25;13.45;;;10.70;99.90;;;;;;5101399;27;20238;-82
2023/10/24 05:42:41;;;;;;;14.30;12.88;;;10.80;99.90;;;;;;5118277;27;20043;-83
2023/10/24 05:45:08;;;;;;;19.75;14.60;;;11.40;99.90;;;;;;5102473;27;20035;-80
2023/10/24 05:47:33;;;;;;;18.25;13.20;;;10.80;99.90;;;;;;5103623;27;20035;-82
2023/10/24 05:49:59;;;;;;;17.60;15.27;;;10.70;99.90;;;;;;5121416;27;20050;-86
2023/10/24 05:52:25;;;;;;;15.38;12.88;;;12.50;99.90;;;;;;5101355;28;20040;-85
2023/10/24 05:54:51;;;;;;;14.80;13.23;;;12.40;99.90;;;;;;5100563;28;20482;-82
2023/10/24 05:57:17;;;;;;;21.92;13.68;;;12.40;99.90;;;;;;5103717;27;20559;-81
2023/10/24 05:59:43;;;;;;;15.45;12.65;;;12.20;99.90;;;;;;5103302;27;20042;-84
2023/10/24 06:02:08;;;;;;;16.35;12.93;;;12.50;99.90;;;;;;5104330;27;20044;-84
2023/10/24 06:04:34;;;;;;;15.15;12.63;;;11.20;99.90;;;;;;5121826;27;20388;-85
2023/10/24 06:07:00;;;;;;;14.35;11.95;;;10.70;99.90;;;;;;5104000;27;20070;-80
2023/10/24 06:09:27;;;;;;;14.20;12.70;;;12.30;99.90;;;;;;5100790;28;20032;-83
2023/10/24 06:11:52;;;;;;;12.40;10.77;;;11.10;99.90;;;;;;5099927;28;20067;-84
2023/10/24 06:14:18;;;;;;;12.45;10.63;;;11.70;99.90;;;;;;5102911;27;20131;-86
2023/10/24 06:16:44;;;;;;;11.50;10.38;;;12.20;99.90;;;;;;5123837;27;20122;-83
2023/10/24 06:19:09;;;;;;;12.82;10.88;;;12.20;99.90;;;;;;5101709;27;20118;-84
2023/10/24 06:21:35;;;;;;;15.13;11.30;;;10.80;99.90;;;;;;5103370;27;20119;-86
2023/10/24 06:24:04;;;;;;;14.63;10.75;;;10.80;99.90;;;;;;5120781;27;20426;-83
2023/10/24 06:26:31;;;;;;;11.45;10.35;;;10.80;99.90;;;;;;5101198;28;20047;-84
2023/10/24 06:28:56;;;;;;;11.45;10.18;;;10.80;99.90;;;;;;5099721;28;20435;-85
2023/10/24 06:31:22;;;;;;;17.08;10.65;;;11.50;99.90;;;;;;5103657;27;20054;-82
2023/10/24 06:33:48;;;;;;;10.57;9.43;;;10.80;99.90;;;;;;5120672;27;20066;-78
2023/10/24 06:36:13;;;;;;;11.63;9.77;;;10.80;99.90;;;;;;5102199;27;20043;-83
2023/10/24 06:38:39;;;;;;;11.20;9.00;;;11.60;99.90;;;;;;5100016;28;20483;-79
2023/10/24 06:41:08;;;;;;;10.98;8.85;;;12.50;99.90;;;;;;5099999;27;20640;-84
2023/10/24 06:43:35;;;;;;;12.88;9.50;;;12.50;99.90;;;;;;5103103;27;20042;-82
2023/10/24 06:46:03;;;;;;;9.77;8.82;;;10.80;99.90;;;;;;5103885;27;20043;-81
2023/10/24 06:48:31;;;;;;;10.65;9.45;;;10.80;99.90;;;;;;5117083;27;20058;-82
2023/10/24 06:50:57;;;;;;;14.20;9.55;;;10.80;99.90;;;;;;5105331;28;20043;-85
2023/10/24 06:53:22;;;;;;;11.35;9.05;;;11.50;99.90;;;;;;5129753;27;20039;-81
2023/10/24 06:55:48;;;;;;;11.98;8.52;;;10.90;99.90;;;;;;5120046;27;20526;-83
2023/10/24 06:58:14;;;;;;;12.15;8.50;;;10.90;99.90;;;;;;5102159;27;20032;-81
2023/10/24 07:00:39;;;;;;;9.48;8.48;;;11.80;99.90;;;;;;5099550;28;20444;-86
2023/10/24 07:03:05;;;;;;;11.55;8.35;;;11.60;99.90;;;;;;5099481;28;20050;-83
2023/10/24 07:05:32;;;;;;;9.30;8.40;;;11.90;99.90;;;;;;5103466;27;20428;-77
2023/10/24 07:07:58;;;;;;;10.45;8.48;;;10.80;99.90;;;;;;5103276;27;20035;-84
2023/10/24 07:10:24;;;;;;;10.93;8.75;;;10.80;99.90;;;;;;5099143;27;20047;-78
2023/10/24 07:12:50;;;;;;;10.70;8.85;;;12.10;99.90;;;;;;5099363;28;20035;-77
2023/10/24 07:15:15;;;;;;;10.10;8.75;;;11.70;99.90;;;;;;5118601;27;20075;-78
2023/10/24 07:17:41;;;;;;;12.15;9.00;;;10.80;99.90;;;;;;5105684;28;20023;-79
2023/10/24 07:20:07;;;;;;;11.32;7.85;;;10.80;99.90;;;;;;5099056;27;20040;-78
2023/10/24 07:22:33;;;;;;;11.88;8.00;;;10.80;99.90;;;;;;5102134;27;20049;-79
2023/10/24 07:24:58;;;;;;;9.63;7.93;;;11.90;99.90;;;;;;5119242;27;20126;-77
2023/10/24 07:27:24;;;;;;;9.35;7.90;;;11.60;99.90;;;;;;5117393;27;20036;-80
2023/10/24 07:29:50;;;;;;;10.77;8.07;;;11.40;99.90;;;;;;5098747;28;20470;-78
2023/10/24 07:32:21;;;;;;;9.43;8.00;;;11.40;99.90;;;;;;5118733;27;20043;-84
2023/10/24 07:34:48;;;;;;;12.20;8.93;;;11.10;99.90;;;;;;5085972;27;20106;-86
2023/10/24 07:37:20;;;;;;;10.75;8.75;;;10.70;99.90;;;;;;5101789;27;20458;-81
2023/10/24 07:39:47;;;;;;;10.60;8.80;;;11.10;99.90;;;;;;5097646;28;20051;-77
2023/10/24 07:42:13;;;;;;;11.20;8.43;;;10.70;99.90;;;;;;5099832;28;20077;-80
2023/10/24 07:44:39;;;;;;;9.60;8.20;;;10.90;99.90;;;;;;5099165;28;20035;-82
2023/10/24 07:47:05;;;;;;;13.65;10.30;;;10.70;99.90;;;;;;5099042;28;20112;-80
2023/10/24 07:49:35;;;;;;;9.07;7.75;;;10.80;99.90;;;;;;5101913;27;20561;-79
2023/10/24 07:52:01;;;;;;;9.45;8.52;;;11.70;99.90;;;;;;5085145;27;20036;-83
2023/10/24 07:54:28;;;;;;;9.82;8.77;;;12.60;99.90;;;;;;5082272;28;20055;-85
2023/10/24 07:56:54;;;;;;;9.85;8.57;;;12.20;99.90;;;;;;5098683;28;20040;-84
2023/10/24 07:59:21;;;;;;;9.35;7.43;;;10.80;99.90;;;;;;5100254;28;20108;-79
2023/10/24 08:01:46;;;;;;;11.95;9.25;;;10.80;99.90;;;;;;5101927;28;20047;-84
2023/10/24 08:04:12;;;;;;;9.07;8.20;;;12.10;99.90;;;;;;5101442;28;20126;-80
2023/10/24 08:06:39;;;;;;;10.98;8.05;;;10.80;99.90;;;;;;5098209;28;20126;-83
2023/10/24 08:09:05;;;;;;;11.98;8.65;;;10.80;99.90;;;;;;5098683;28;20481;-82
2023/10/24 08:11:30;;;;;;;9.45;8.32;;;11.70;99.90;;;;;;5102324;28;20131;-77
2023/10/24 08:13:56;;;;;;;10.52;9.23;;;10.80;99.90;;;;;;5084867;28;20121;-80
2023/10/24 08:16:22;;;;;;;13.60;7.97;;;10.80;99.90;;;;;;5099967;28;20045;-78
2023/10/24 08:18:50;;;;;;;13.38;9.07;;;10.80;99.90;;;;;;5115480;28;20395;-79
2023/10/24 08:21:16;;;;;;;13.93;8.75;;;10.80;99.90;;;;;;5100871;28;20062;-81
2023/10/24 08:23:41;;;;;;;12.45;10.00;;;12.70;99.90;;;;;;5108182;28;20028;-82
2023/10/24 08:26:07;;;;;;;11.25;9.82;;;12.50;99.90;;;;;;5102259;28;20515;-83
2023/10/24 08:28:33;;;;;;;12.75;10.48;;;12.10;99.90;;;;;;5097864;28;20036;-83
2023/10/24 08:30:58;;;;;;;14.05;9.50;;;10.80;99.90;;;;;;5098307;28;20055;-85
2023/10/24 08:33:24;;;;;;;13.45;10.05;;;10.90;99.90;;;;;;5102390;27;20043;-82
2023/10/24 08:35:50;;;;;;;12.50;9.95;;;12.50;99.90;;;;;;5105274;27;20702;-81
2023/10/24 08:38:15;;;;;;;13.25;10.18;;;10.80;99.90;;;;;;5104437;27;20594;-83
2023/10/24 08:40:41;;;;;;;12.93;10.38;;;11.60;99.90;;;;;;5102306;28;20059;-83
2023/10/24 08:43:10;;;;;;;13.95;11.25;;;12.80;99.90;;;;;;5101983;27;20386;-84
2023/10/24 08:45:36;;;;;;;15.63;11.05;;;10.80;99.90;;;;;;5105911;27;20043;-78
2023/10/24 08:48:05;;;;;;;12.68;10.05;;;10.90;99.90;;;;;;5105501;27;20035;-80
2023/10/24 08:50:31;;;;;;;15.10;11.38;;;10.80;99.90;;;;;;5101395;28;20526;-78
2023/10/24 08:52:57;;;;;;;12.27;10.32;;;11.40;99.90;;;;;;5102065;28;20525;-84
2023/10/24 08:55:26;;;;;;;15.90;11.30;;;12.50;99.90;;;;;;5103972;27;20055;-83
2023/10/24 08:57:54;;;;;;;15.57;11.30;;;10.80;99.90;;;;;;5104874;27;20055;-82
2023/10/24 09:00:19;;;;;;;18.10;12.05;;;11.00;99.90;;;;;;5103441;27;20114;-83
2023/10/24 09:02:46;;;;;;;15.40;11.15;;;10.80;99.90;;;;;;5100955;28;20173;-78
2023/10/24 09:05:15;;;;;;;15.50;11.18;;;11.40;99.90;;;;;;5110503;27;20495;-84
2023/10/24 09:07:41;;;;;;;18.67;12.73;;;12.30;99.90;;;;;;5084961;28;20185;-86
2023/10/24 09:10:07;;;;;;;13.05;10.95;;;12.30;99.90;;;;;;5100821;28;20126;-81
2023/10/24 09:12:34;;;;;;;16.38;12.25;;;10.90;99.90;;;;;;5122932;27;20039;-81
2023/10/24 09:15:01;;;;;;;13.43;10.88;;;11.30;99.90;;;;;;5105502;27;20080;-83
2023/10/24 09:17:29;;;;;;;15.80;11.45;;;10.90;99.90;;;;;;5101806;27;20505;-81
2023/10/24 09:19:55;;;;;;;16.83;11.57;;;9.60;99.90;;;;;;5101458;28;20050;-84
2023/10/24 09:22:22;;;;;;;14.45;11.50;;;10.90;99.90;;;;;;5103703;27;20410;-86
2023/10/24 09:24:49;;;;;;;14.88;10.90;;;10.90;99.90;;;;;;5104064;27;20046;-86
2023/10/24 09:27:15;;;;;;;22.55;17.38;;;12.20;99.90;;;;;;5104150;27;20039;-82
2023/10/24 09:29:41;;;;;;;15.65;11.98;;;10.90;99.90;;;;;;5100791;28;20050;-84
2023/10/24 09:32:13;;;;;;;14.40;11.88;;;10.90;99.90;;;;;;5100738;28;20039;-86
2023/10/24 09:34:44;;;;;;;18.67;11.02;;;11.80;99.90;;;;;;5118337;27;20541;-84
2023/10/24 09:37:10;;;;;;;13.65;10.20;;;11.20;99.90;;;;;;5101463;27;20043;-85
2023/10/24 09:39:57;;;;;;;14.15;11.20;;;10.90;99.90;;;;;;5120409;27;20047;-83
2023/10/24 09:42:24;;;;;;;15.68;11.50;;;11.50;99.90;;;;;;5102702;27;20046;-84
2023/10/24 09:44:56;;;;;;;13.15;10.70;;;10.90;99.90;;;;;;5099960;28;20079;-81
2023/10/24 09:47:28;;;;;;;14.00;10.68;;;10.90;99.90;;;;;;5103362;27;20043;-82
2023/10/24 09:49:55;;;;;;;12.70;10.93;;;10.90;99.90;;;;;;5103889;27;20092;-85
2023/10/24 09:52:23;;;;;;;13.02;11.27;;;10.90;99.90;;;;;;5102956;27;20051;-83
2023/10/24 09:54:52;;;;;;;12.88;10.95;;;11.40;99.90;;;;;;5106856;28;20088;-82
2023/10/24 09:57:22;;;;;;;16.30;12.00;;;12.50;99.90;;;;;;5103826;27;20083;-85
2023/10/24 09:59:57;;;;;;;12.68;11.13;;;11.40;99.90;;;;;;5103225;27;20060;-86
2023/10/24 10:02:24;;;;;;;17.25;12.02;;;10.90;99.90;;;;;;5102844;27;20042;-82
2023/10/24 10:04:50;;;;;;;13.55;12.02;;;12.70;99.90;;;;;;5100416;28;20042;-82
2023/10/24 10:07:17;;;;;;;16.77;11.18;;;11.40;99.90;;;;;;5101446;27;20141;-84
2023/10/24 10:09:47;;;;;;;14.18;11.23;;;10.80;99.90;;;;;;5104127;27;20119;-83
2023/10/24 10:12:14;;;;;;;16.33;11.40;;;10.90;99.90;;;;;;5104066;27;20067;-84
2023/10/24 10:15:01;;;;;;;12.88;11.10;;;12.30;99.90;;;;;;5100113;28;20039;-85
2023/10/24 10:17:38;;;;;;;16.77;10.52;;;10.90;99.90;;;;;;5103637;27;20047;-81
2023/10/24 10:20:06;;;;;;;13.30;10.45;;;10.90;99.90;;;;;;5120057;27;20046;-84
2023/10/24 10:22:53;;;;;;;14.48;11.40;;;10.90;99.90;;;;;;5100570;27;20101;-85
2023/10/24 10:25:29;;;;;;;13.43;10.70;;;10.90;99.90;;;;;;5101877;27;20475;-84
2023/10/24 10:28:28;;;;;;;14.25;11.05;;;12.60;99.90;;;;;;5102670;27;20087;-83
2023/10/24 10:31:31;;;;;;;16.08;11.15;;;10.90;99.90;;;;;;5105704;28;20079;-80
2023/10/24 10:33:57;;;;;;;12.02;10.07;;;10.80;99.90;;;;;;5099289;28;20046;-82
2023/10/24 10:36:25;;;;;;;14.95;11.57;;;12.30;99.90;;;;;;5101083;28;20035;-84
2023/10/24 10:38:51;;;;;;;10.93;9.77;;;11.60;99.90;;;;;;5099268;28;20069;-81
2023/10/24 10:41:23;;;;;;;12.43;10.80;;;10.90;99.90;;;;;;5100323;27;20165;-79
2023/10/24 10:43:50;;;;;;;12.90;11.25;;;12.20;99.90;;;;;;5103163;27;20042;-79
2023/10/24 10:46:20;;;;;;;11.75;10.55;;;10.90;99.90;;;;;;5120195;27;20483;-79
2023/10/24 10:48:50;;;;;;;14.73;11.88;;;10.90;99.90;;;;;;5098724;28;20479;-79
2023/10/24 10:51:20;;;;;;;13.45;11.25;;;10.90;99.90;;;;;;5100921;27;20051;-78
2023/10/24 10:54:20;;;;;;;12.68;10.55;;;12.00;99.90;;;;;;5103186;27;20099;-79
2023/10/24 10:56:48;;;;;;;14.10;11.48;;;10.90;99.90;;;;;;5098245;28;20552;-82
2023/10/24 10:59:38;;;;;;;14.20;11.57;;;11.10;99.90;;;;;;5116973;27;20075;-81
2023/10/24 11:02:41;;;;;;;17.55;13.93;;;11.00;99.90;;;;;;5102530;27;20051;-78
2023/10/24 11:05:35;;;;;;;22.75;18.65;;;11.00;99.90;;;;;;5099735;28;20096;-80
2023/10/24 11:08:02;;;;;;;14.05;12.27;;;11.10;99.90;;;;;;5099266;28;20043;-81
2023/10/24 11:10:57;;;;;;;19.00;13.38;;;10.90;99.90;;;;;;5101283;27;20518;-82
2023/10/24 11:13:40;;;;;;;16.30;12.52;;;11.10;99.90;;;;;;5098318;27;20043;-79
2023/10/24 11:16:10;;;;;;;16.17;12.00;;;11.10;99.90;;;;;;5098625;28;20047;-82
2023/10/24 11:18:37;;;;;;;17.50;13.40;;;11.10;99.90;;;;;;5099192;28;20043;-80
2023/10/24 11:21:05;;;;;;;20.25;15.35;;;13.00;99.90;;;;;;5099061;28;20096;-82
2023/10/24 11:23:32;;;;;;;20.13;14.88;;;11.10;99.90;;;;;;5118326;27;20050;-81
2023/10/24 11:26:02;;;;;;;15.52;12.52;;;9.70;99.90;;;;;;5103904;27;20402;-79
2023/10/24 11:28:28;;;;;;;12.88;11.57;;;11.20;99.90;;;;;;5101228;27;20049;-80
2023/10/24 11:30:55;;;;;;;17.40;12.73;;;13.00;99.90;;;;;;5098178;28;20391;-79
2023/10/24 11:33:21;;;;;;;15.35;12.27;;;11.20;99.90;;;;;;5100767;27;20411;-79
2023/10/24 11:35:46;;;;;;;14.57;12.40;;;11.20;99.90;;;;;;5102269;27;20057;-80
2023/10/24 11:38:16;;;;;;;12.40;11.10;;;12.00;99.90;;;;;;5101883;27;20041;-78
2023/10/24 11:40:46;;;;;;;14.07;12.50;;;11.30;99.90;;;;;;5115846;27;20135;-79
2023/10/24 11:43:13;;;;;;;14.63;12.55;;;11.30;99.90;;;;;;5099270;28;20040;-80
2023/10/24 11:45:39;;;;;;;13.57;12.05;;;11.40;99.90;;;;;;5098150;28;20047;-78
2023/10/24 11:48:05;;;;;;;16.02;12.90;;;11.40;99.90;;;;;;5098889;28;20044;-81
2023/10/24 11:50:45;;;;;;;13.73;11.98;;;11.40;99.90;;;;;;5101127;27;20040;-80
2023/10/24 11:53:18;;;;;;;16.45;12.80;;;11.40;99.90;;;;;;5119323;27;20390;-81
2023/10/24 11:55:44;;;;;;;14.23;12.60;;;11.70;99.90;;;;;;5102747;28;20433;-79
2023/10/24 11:58:11;;;;;;;12.48;11.27;;;11.50;99.90;;;;;;5101242;28;20043;-80
2023/10/24 12:00:40;;;;;;;13.40;12.02;;;12.70;99.90;;;;;;5098563;28;20074;-80
2023/10/24 12:03:07;;;;;;;12.77;11.50;;;12.10;99.90;;;;;;5099127;28;20126;-81
2023/10/24 12:05:33;;;;;;;14.02;12.52;;;11.90;99.90;;;;;;5100997;28;21143;-80
2023/10/24 12:08:00;;;;;;;13.43;12.02;;;11.60;99.90;;;;;;5102137;27;20079;-83
2023/10/24 12:10:30;;;;;;;13.30;12.00;;;11.90;99.90;;;;;;5104971;27;20091;-82
2023/10/24 12:12:58;;;;;;;13.95;11.95;;;12.70;99.90;;;;;;5102347;28;20038;-82
2023/10/24 12:15:25;;;;;;;12.80;11.45;;;13.20;99.90;;;;;;5104615;27;20122;-80
2023/10/24 12:17:51;;;;;;;12.10;10.90;;;13.20;99.90;;;;;;5123012;27;20038;-79
2023/10/24 12:20:17;;;;;;;13.23;11.75;;;12.70;99.90;;;;;;5105571;27;20451;-84
2023/10/24 12:22:46;;;;;;;12.05;10.85;;;11.50;99.90;;;;;;5102612;28;20032;-85
2023/10/24 12:25:13;;;;;;;12.90;11.55;;;11.50;99.90;;;;;;5120502;27;20514;-87
2023/10/24 12:27:39;;;;;;;16.08;11.50;;;11.50;99.90;;;;;;5101937;28;20049;-86
2023/10/24 12:30:05;;;;;;;15.32;11.70;;;11.50;99.90;;;;;;5102722;28;20110;-86
2023/10/24 12:32:31;;;;;;;14.27;10.95;;;11.50;99.90;;;;;;5105242;27;20043;-84